Kellogg, IA (50135)

10:17 AM CDT on July 24, 2016 (GMT -0500)
Newton Municipal | | Change Station

Elev 951 ft 41.67 °N, 93.02 °W | Updated 22 minutes ago

Mostly Cloudy
Mostly Cloudy
84 °F
Feels Like 96 °F
N
9
Wind Variable Wind from West
Gusts 16 mph

Today
High -- | Low -- °F
--% Chance of Precip.
Yesterday
High -- | Low -- °F
Precip. -- in
Pressure 29.88 in
Visibility 10.0 miles
Clouds Mostly Cloudy 1700 ft
Heat Index 96 °F
Dew Point 79 °F
Humidity 84%
Rainfall 0.00 in
Snow Depth Not available.
5:58 AM 8:37 PM
Waning Gibbous, 75% visible
METAR KTNU 241455Z AUTO 28008G14KT 10SM BKN017 29/26 A2988 RMK AO2 PWINO
Pressure 29.88 in
Visibility 10.0 miles
Clouds Mostly Cloudy 1700 ft
Heat Index 96 °F
Dew Point 79 °F
Humidity 84%
Rainfall 0.00 in
Snow Depth Not available.
5:58 AM 8:37 PM
Waning Gibbous, 75% visible
METAR KTNU 241455Z AUTO 28008G14KT 10SM BKN017 29/26 A2988 RMK AO2 PWINO

10-Day Weather Forecast

Almanac

Astronomy

Jul. 24, 2016 Rise Set
Actual Time
Civil Twilight
Nautical Twilight
Astronomical Twilight
Moon
Length of Visible Light
Length of Day
Tomorrow will be .
, % of the Moon is Illuminated

Today's Extremes

State Highs State Lows

Community

WunderPhotos

Upload Photos

1,927,076 photos uploaded!

WunderBlog® & News

Nearby

Air Quality

  Air Quality AQ Index Pollutant
Not available.

Snow Depth

Station Depth Elevation

Earthquake Activity

City Distance Mag. Time & Date
Minimum magnitude displayed is 2.5.

Coastal Water Temperatures

Place Temperature

Stations

Nearby Weather Stations

Station Location Temp. Windchill Dew Point Humidity Wind Precip. Elev Updated Type
                   

Watches & Warnings

There are currently no watches in effect.